PROFILE

 METAR AND TAF INFORMATION
ADDS - METARS form results

(2123 UTC 18 February 2019)
http://aviationweather.gov/metar/data/
 
LFRS 182100Z AUTO 23004KT 3500 -RA BR NSC 08/08 Q1020 TEMPO BKN008
LFRS 182030Z AUTO 21002KT 3900 BR SCT034 BKN058 BKN068 08/08 Q1020 TEMPO BKN008
TAF AMD LFRS 181843Z 1818/1924 28005KT 9999 BKN020 TEMPO 1818/1822 4000 -RA BKN008 BECMG 1822/1824 3000 BR TEMPO 1900/1909 0400 FG VV/// BECMG 1909/1911 9999 NSW 

 AIRPORT MAP

 RUNWAY INFORMATION
Runway 03 Runway length 9514 ft Runway width 148 ft
Runway elevation 73 ft Runway displaced threshold 0 ft Runway heading 28
Runway 21 Runway length 9514 ft Runway width 148 ft
Runway elevation 86 ft Runway displaced threshold 694 ft Runway heading 208

 AIRPORT FREQUENCIES
Type APP Name APP Frequency 130.275 MHZ
Type ATIS Name ATIS Frequency 126.925 MHZ
Type GND Name GND Frequency 121.875 MHZ
Type INFO Name INFO Frequency 129.875 MHZ
Type TWR Name TWR Frequency 118.65 MHZ

 AIRPORT NEAR NAVIGATION AIDS
Type NDB Name Nantes Frequency 369 KHZ
Type VOR-DME Name Nantes Frequency 115500 KHZ